createdAt,value
2018-03-10T00:00:25.301Z,0
2018-03-10T00:01:05.855Z,0
2018-03-10T00:01:46.414Z,0
2018-03-10T00:02:26.965Z,0
2018-03-10T00:03:07.518Z,0
2018-03-10T00:03:48.081Z,0
2018-03-10T00:04:28.840Z,0
2018-03-10T00:05:09.427Z,0
2018-03-10T00:05:49.984Z,0
2018-03-10T00:06:30.559Z,0
2018-03-10T00:07:11.133Z,0
2018-03-10T00:07:51.683Z,0
2018-03-10T00:08:32.242Z,0
2018-03-10T00:09:12.787Z,0
2018-03-10T00:09:53.394Z,0
2018-03-10T00:10:33.948Z,0
2018-03-10T00:11:14.508Z,0
2018-03-10T00:11:55.070Z,0
2018-03-10T00:12:35.636Z,0
2018-03-10T00:13:16.186Z,0
2018-03-10T00:13:56.746Z,0
2018-03-10T00:14:37.305Z,0
2018-03-10T00:15:17.862Z,0
2018-03-10T00:15:58.421Z,0
2018-03-10T00:16:38.975Z,0
2018-03-10T00:17:19.535Z,0
2018-03-10T00:18:00.095Z,0
2018-03-10T00:18:40.815Z,0
2018-03-10T00:19:21.375Z,0
2018-03-10T00:20:01.920Z,0
2018-03-10T00:20:42.478Z,0
2018-03-10T00:21:23.048Z,0
2018-03-10T00:22:03.604Z,0
2018-03-10T00:22:44.161Z,0
2018-03-10T00:23:24.766Z,0
2018-03-10T00:24:05.446Z,0
2018-03-10T00:24:46.162Z,0
2018-03-10T00:25:26.714Z,0
2018-03-10T00:26:07.638Z,0
2018-03-10T00:26:48.190Z,0
2018-03-10T00:27:28.759Z,0
2018-03-10T00:28:09.322Z,0
2018-03-10T00:28:49.874Z,0
2018-03-10T00:29:30.439Z,0
2018-03-10T00:30:10.998Z,0
2018-03-10T00:30:51.563Z,0
2018-03-10T00:31:32.120Z,0
2018-03-10T00:32:12.689Z,0
2018-03-10T00:32:53.254Z,0
2018-03-10T00:33:33.812Z,0
2018-03-10T00:34:14.383Z,0
2018-03-10T00:34:54.937Z,0
2018-03-10T00:35:35.500Z,0
2018-03-10T00:36:16.064Z,0
2018-03-10T00:36:56.642Z,0
2018-03-10T00:37:37.204Z,0
2018-03-10T00:38:17.768Z,0
2018-03-10T00:38:58.324Z,0
2018-03-10T00:39:38.889Z,0
2018-03-10T00:40:19.444Z,0
2018-03-10T00:41:00.012Z,0
2018-03-10T00:41:40.599Z,0
2018-03-10T00:42:21.245Z,0
2018-03-10T00:43:01.825Z,0
2018-03-10T00:43:42.392Z,0
2018-03-10T00:44:22.948Z,0
2018-03-10T00:45:03.527Z,0
2018-03-10T00:45:44.085Z,0
2018-03-10T00:46:24.673Z,0
2018-03-10T00:47:05.246Z,0
2018-03-10T00:47:45.807Z,0
2018-03-10T00:48:26.441Z,0
2018-03-10T00:49:06.995Z,0
2018-03-10T00:49:47.563Z,0
2018-03-10T00:50:28.138Z,0
2018-03-10T00:51:08.737Z,0
2018-03-10T00:51:49.355Z,0
2018-03-10T00:52:29.982Z,0
2018-03-10T00:53:10.810Z,0
2018-03-10T00:53:51.341Z,0
2018-03-10T00:54:31.975Z,0
2018-03-10T00:55:12.553Z,0
2018-03-10T00:55:53.123Z,0
2018-03-10T00:56:33.782Z,0
2018-03-10T00:57:14.351Z,0
2018-03-10T00:57:54.875Z,0
2018-03-10T00:58:35.432Z,0
2018-03-10T00:59:15.992Z,0
2018-03-10T00:59:56.649Z,0
2018-03-10T01:00:37.842Z,0
2018-03-10T01:01:18.387Z,0
2018-03-10T01:01:58.957Z,0
2018-03-10T01:02:39.525Z,0
2018-03-10T01:03:20.081Z,0
2018-03-10T01:04:00.740Z,0
2018-03-10T01:04:41.319Z,0
2018-03-10T01:05:21.999Z,0
2018-03-10T01:06:02.608Z,0
2018-03-10T01:08:20.609Z,0
2018-03-10T01:09:01.166Z,0
2018-03-10T01:09:41.717Z,0
2018-03-10T01:10:22.295Z,0
2018-03-10T01:11:02.928Z,0
2018-03-10T01:11:43.542Z,0
2018-03-10T01:12:24.215Z,0
2018-03-10T01:13:04.786Z,0
2018-03-10T01:13:45.338Z,0
2018-03-10T01:14:25.884Z,0
2018-03-10T01:15:06.499Z,0
2018-03-10T01:15:47.043Z,0
2018-03-10T01:16:27.606Z,0
2018-03-10T01:17:08.157Z,0
2018-03-10T01:17:48.734Z,0
2018-03-10T01:18:29.398Z,0
2018-03-10T01:19:09.969Z,0
2018-03-10T01:19:50.533Z,0
2018-03-10T01:20:31.108Z,0
2018-03-10T01:21:11.693Z,0
2018-03-10T01:21:52.239Z,0
2018-03-10T01:22:32.818Z,0
2018-03-10T01:23:13.361Z,0
2018-03-10T01:23:53.926Z,0
2018-03-10T01:24:34.487Z,0
2018-03-10T01:25:15.159Z,0
2018-03-10T01:25:56.320Z,0
2018-03-10T01:26:37.024Z,0
2018-03-10T01:27:17.697Z,0
2018-03-10T01:27:58.285Z,0
2018-03-10T01:28:38.797Z,0
2018-03-10T01:29:19.632Z,0
2018-03-10T01:30:00.054Z,0
2018-03-10T01:30:40.626Z,0
2018-03-10T01:31:21.271Z,0
2018-03-10T01:32:01.832Z,0
2018-03-10T01:32:42.449Z,0
2018-03-10T01:33:23.013Z,0
2018-03-10T01:34:03.567Z,0
2018-03-10T01:34:44.168Z,0
2018-03-10T01:35:24.930Z,0
2018-03-10T01:36:05.494Z,0
2018-03-10T01:36:46.209Z,0
2018-03-10T01:37:26.830Z,0
2018-03-10T01:38:07.443Z,0
2018-03-10T01:38:48.002Z,0
2018-03-10T01:39:28.562Z,0
2018-03-10T01:40:09.126Z,0
2018-03-10T01:40:49.723Z,0
2018-03-10T01:41:30.267Z,0
2018-03-10T01:42:10.821Z,0
2018-03-10T01:42:51.375Z,0
2018-03-10T01:43:31.942Z,0
2018-03-10T01:44:12.490Z,0
2018-03-10T01:44:53.059Z,0
2018-03-10T01:45:33.621Z,0
2018-03-10T01:46:14.178Z,0
2018-03-10T01:46:54.793Z,0
2018-03-10T01:47:35.331Z,0
2018-03-10T01:48:15.919Z,0
2018-03-10T01:48:56.485Z,0
2018-03-10T01:49:37.036Z,0
2018-03-10T01:50:17.677Z,0
2018-03-10T01:50:58.238Z,0
2018-03-10T01:51:38.815Z,0
2018-03-10T01:52:19.382Z,0
2018-03-10T01:52:59.966Z,0
2018-03-10T01:53:40.544Z,0
2018-03-10T01:54:21.115Z,0
2018-03-10T01:55:01.668Z,0
2018-03-10T01:55:42.465Z,0
2018-03-10T01:56:23.033Z,0
2018-03-10T01:57:03.873Z,0
2018-03-10T01:57:44.432Z,0
2018-03-10T01:58:25.000Z,0
2018-03-10T01:59:05.549Z,0
2018-03-10T01:59:46.129Z,0
2018-03-10T02:00:26.676Z,0
2018-03-10T02:01:07.234Z,0
2018-03-10T02:01:47.876Z,0
2018-03-10T02:02:28.435Z,0
2018-03-10T02:03:08.988Z,0
2018-03-10T02:03:49.552Z,0
2018-03-10T02:04:30.105Z,0
2018-03-10T02:05:10.681Z,0
2018-03-10T02:05:51.246Z,0
2018-03-10T02:06:31.809Z,0
2018-03-10T02:07:12.386Z,0
2018-03-10T02:07:52.944Z,0
2018-03-10T02:08:33.499Z,0
2018-03-10T02:09:14.136Z,0
2018-03-10T02:09:54.694Z,0
2018-03-10T02:10:35.244Z,0
2018-03-10T02:11:15.792Z,0
2018-03-10T02:11:56.351Z,0
2018-03-10T02:12:36.918Z,0
2018-03-10T02:13:17.511Z,0
2018-03-10T02:13:58.065Z,0
2018-03-10T02:14:38.810Z,0
2018-03-10T02:15:19.239Z,0
2018-03-10T02:15:59.792Z,0
2018-03-10T02:16:40.349Z,0
2018-03-10T02:17:20.900Z,0
2018-03-10T02:18:01.452Z,0
2018-03-10T02:18:42.005Z,0
2018-03-10T02:19:22.565Z,0
2018-03-10T02:20:03.114Z,0
2018-03-10T02:20:43.711Z,0
2018-03-10T02:21:24.260Z,0
2018-03-10T02:22:04.817Z,0
2018-03-10T02:22:45.371Z,0
2018-03-10T02:23:26.289Z,0
2018-03-10T02:24:06.853Z,0
2018-03-10T02:24:47.415Z,0
2018-03-10T02:25:27.982Z,0
2018-03-10T02:26:08.541Z,0
2018-03-10T02:26:49.103Z,0
2018-03-10T02:27:29.779Z,0
2018-03-10T02:28:10.326Z,0
2018-03-10T02:28:51.023Z,0
2018-03-10T02:29:31.595Z,0
2018-03-10T02:30:12.178Z,0
2018-03-10T02:30:52.770Z,0
2018-03-10T02:31:33.369Z,0
2018-03-10T02:32:14.077Z,0
2018-03-10T02:32:54.637Z,0
2018-03-10T02:33:35.188Z,0
2018-03-10T02:34:15.750Z,0
2018-03-10T02:34:56.304Z,0
2018-03-10T02:35:36.872Z,0
2018-03-10T02:36:17.447Z,0
2018-03-10T02:36:58.122Z,0
2018-03-10T02:37:38.675Z,0
2018-03-10T02:38:19.363Z,0
2018-03-10T02:39:00.004Z,0
2018-03-10T02:39:40.581Z,0
2018-03-10T02:40:21.142Z,0
2018-03-10T02:41:01.693Z,0
2018-03-10T02:41:42.259Z,0
2018-03-10T02:42:22.803Z,0
2018-03-10T02:43:03.364Z,0
2018-03-10T02:43:44.033Z,0
2018-03-10T02:44:24.591Z,0
2018-03-10T02:45:05.226Z,0
2018-03-10T02:45:45.971Z,0
2018-03-10T02:46:26.531Z,0
2018-03-10T02:47:07.077Z,0
2018-03-10T02:47:47.677Z,0
2018-03-10T02:48:28.241Z,0
2018-03-10T02:49:08.823Z,0
2018-03-10T02:49:49.377Z,0
2018-03-10T02:50:29.940Z,0
2018-03-10T02:51:10.507Z,0
2018-03-10T02:51:51.066Z,0
2018-03-10T02:52:31.614Z,0
2018-03-10T02:53:12.175Z,0
2018-03-10T02:53:52.736Z,0
2018-03-10T02:54:33.307Z,0
2018-03-10T02:55:13.880Z,0
2018-03-10T02:55:54.434Z,0
2018-03-10T02:56:34.982Z,0
2018-03-10T02:57:15.621Z,0
2018-03-10T02:57:56.154Z,0
2018-03-10T02:58:36.718Z,0
2018-03-10T02:59:17.275Z,0
2018-03-10T02:59:57.831Z,0
2018-03-10T03:00:38.396Z,0
2018-03-10T03:01:18.979Z,0
2018-03-10T03:01:59.556Z,0
2018-03-10T03:02:40.426Z,0
2018-03-10T03:03:20.984Z,0
2018-03-10T03:04:01.533Z,0
2018-03-10T03:04:42.083Z,0
2018-03-10T03:05:22.662Z,0
2018-03-10T03:06:03.388Z,0
2018-03-10T03:06:43.947Z,0
2018-03-10T03:07:24.502Z,0
2018-03-10T03:08:05.064Z,0
2018-03-10T03:08:45.610Z,0
2018-03-10T03:09:26.342Z,0
2018-03-10T03:10:06.913Z,0
2018-03-10T03:10:47.475Z,0
2018-03-10T03:11:28.043Z,0
2018-03-10T03:12:08.597Z,0
2018-03-10T03:12:49.160Z,0
2018-03-10T03:13:29.783Z,0
2018-03-10T03:14:10.302Z,0
2018-03-10T03:14:50.920Z,0
2018-03-10T03:15:31.477Z,0
2018-03-10T03:16:12.033Z,0
2018-03-10T03:16:52.587Z,0
2018-03-10T03:17:33.150Z,0
2018-03-10T03:18:13.709Z,0
2018-03-10T03:18:54.278Z,0
2018-03-10T03:19:34.835Z,0
2018-03-10T03:20:15.408Z,0
2018-03-10T03:20:56.070Z,0
2018-03-10T03:21:36.627Z,0
2018-03-10T03:22:17.191Z,0
2018-03-10T03:22:57.769Z,0
2018-03-10T03:23:38.315Z,0
2018-03-10T03:24:18.866Z,0
2018-03-10T03:24:59.448Z,0
2018-03-10T03:25:40.045Z,0
2018-03-10T03:26:20.604Z,0
2018-03-10T03:27:01.164Z,0
2018-03-10T03:27:41.713Z,0
2018-03-10T03:28:22.267Z,0
2018-03-10T03:29:02.836Z,0
2018-03-10T03:29:43.455Z,0
2018-03-10T03:30:23.969Z,0
2018-03-10T03:31:04.534Z,0
2018-03-10T03:31:45.134Z,0
2018-03-10T03:32:25.711Z,0
2018-03-10T03:33:06.297Z,0
2018-03-10T03:33:46.858Z,0
2018-03-10T03:34:27.403Z,0
2018-03-10T03:35:08.017Z,0
2018-03-10T03:35:48.592Z,0
2018-03-10T03:36:29.169Z,0
2018-03-10T03:37:09.726Z,0
2018-03-10T03:37:50.282Z,0
2018-03-10T03:38:31.022Z,0
2018-03-10T03:39:11.595Z,0
2018-03-10T03:39:52.157Z,0
2018-03-10T03:40:32.711Z,0
2018-03-10T03:41:13.270Z,0
2018-03-10T03:41:53.812Z,0
2018-03-10T03:42:34.360Z,0
2018-03-10T03:43:14.928Z,0
2018-03-10T03:43:55.495Z,0
2018-03-10T03:44:36.074Z,0
2018-03-10T03:45:16.635Z,0
2018-03-10T03:45:57.199Z,0
2018-03-10T03:46:37.759Z,0
2018-03-10T03:47:18.338Z,0
2018-03-10T03:47:58.902Z,0
2018-03-10T03:48:39.460Z,0
2018-03-10T03:49:20.037Z,0
2018-03-10T03:50:00.610Z,0
2018-03-10T03:50:41.172Z,0
2018-03-10T03:51:21.724Z,0
2018-03-10T03:52:02.274Z,0
2018-03-10T03:52:42.839Z,0
2018-03-10T03:53:23.414Z,0
2018-03-10T03:54:03.969Z,0
2018-03-10T03:54:44.512Z,0
2018-03-10T03:55:25.069Z,0
2018-03-10T03:56:05.636Z,0
2018-03-10T03:56:46.189Z,0
2018-03-10T03:57:26.753Z,0
2018-03-10T03:58:07.418Z,0
2018-03-10T03:58:47.992Z,0
2018-03-10T03:59:28.585Z,0
2018-03-10T04:00:09.136Z,0
2018-03-10T04:00:49.688Z,0
2018-03-10T04:01:30.309Z,0
2018-03-10T04:02:10.817Z,0
2018-03-10T04:02:51.370Z,0
2018-03-10T04:03:31.922Z,0
2018-03-10T04:04:12.507Z,0
2018-03-10T04:04:53.063Z,0
2018-03-10T04:05:33.628Z,0
2018-03-10T04:06:14.224Z,0
2018-03-10T04:06:54.774Z,0
2018-03-10T04:07:35.331Z,0
2018-03-10T04:08:15.873Z,0
2018-03-10T04:08:56.449Z,0
2018-03-10T04:09:37.001Z,0
2018-03-10T04:10:17.564Z,0
2018-03-10T04:10:58.141Z,0
2018-03-10T04:11:38.720Z,0
2018-03-10T04:12:19.295Z,0
2018-03-10T04:12:59.846Z,0
2018-03-10T04:13:40.389Z,0
2018-03-10T04:14:20.948Z,0
2018-03-10T04:15:01.514Z,0
2018-03-10T04:15:42.254Z,0
2018-03-10T04:16:22.810Z,0
2018-03-10T04:17:03.382Z,0
2018-03-10T04:17:43.933Z,0
2018-03-10T04:18:24.516Z,0
2018-03-10T04:19:05.070Z,0
2018-03-10T04:19:45.645Z,0
2018-03-10T04:20:26.200Z,0
2018-03-10T04:21:06.766Z,0
2018-03-10T04:21:47.354Z,0
2018-03-10T04:22:27.890Z,0
2018-03-10T04:23:08.492Z,0
2018-03-10T04:23:49.045Z,0
2018-03-10T04:24:29.638Z,0
2018-03-10T04:25:10.232Z,0
2018-03-10T04:25:50.940Z,0
2018-03-10T04:26:31.507Z,0
2018-03-10T04:27:12.069Z,0
2018-03-10T04:27:52.707Z,0
2018-03-10T04:28:33.283Z,0
2018-03-10T04:29:13.839Z,0
2018-03-10T04:29:54.411Z,0
2018-03-10T04:30:34.966Z,0
2018-03-10T04:31:15.533Z,0
2018-03-10T04:31:56.135Z,0
2018-03-10T04:32:36.687Z,0
2018-03-10T04:33:17.390Z,0
2018-03-10T04:33:57.956Z,0
2018-03-10T04:34:38.516Z,0
2018-03-10T04:35:19.068Z,0
2018-03-10T04:35:59.613Z,0
2018-03-10T04:36:40.168Z,0
2018-03-10T04:37:20.742Z,0
2018-03-10T04:38:01.336Z,0
2018-03-10T04:38:41.932Z,0
2018-03-10T04:39:22.473Z,0
2018-03-10T04:40:03.066Z,0
2018-03-10T04:40:43.621Z,0
2018-03-10T04:41:24.199Z,0
2018-03-10T04:42:04.747Z,0
2018-03-10T04:42:45.311Z,0
2018-03-10T04:43:25.866Z,0
2018-03-10T04:44:06.435Z,0
2018-03-10T04:44:46.998Z,0
2018-03-10T04:45:27.736Z,0
2018-03-10T04:46:08.349Z,0
2018-03-10T04:46:48.934Z,0
2018-03-10T04:47:29.491Z,0
2018-03-10T04:48:10.100Z,0
2018-03-10T04:48:50.664Z,0
2018-03-10T04:49:31.245Z,0
2018-03-10T04:50:11.813Z,0
2018-03-10T04:50:52.365Z,0
2018-03-10T04:51:32.937Z,0
2018-03-10T04:52:13.496Z,0
2018-03-10T04:52:54.058Z,0
2018-03-10T04:53:34.623Z,0
2018-03-10T04:54:15.181Z,0
2018-03-10T04:54:55.744Z,0
2018-03-10T04:55:36.302Z,0
2018-03-10T04:56:16.872Z,0
2018-03-10T04:56:57.447Z,0
2018-03-10T04:57:37.999Z,0
2018-03-10T04:58:18.591Z,0
2018-03-10T04:58:59.165Z,0
2018-03-10T04:59:39.714Z,0
2018-03-10T05:00:20.283Z,0
2018-03-10T05:01:00.920Z,0
2018-03-10T05:01:41.410Z,0
2018-03-10T05:02:21.964Z,0
2018-03-10T05:03:02.537Z,0
2018-03-10T05:03:43.090Z,0
2018-03-10T05:04:23.642Z,0
2018-03-10T05:05:04.243Z,0
2018-03-10T05:05:44.812Z,0
2018-03-10T05:06:25.384Z,0
2018-03-10T05:07:05.937Z,4
2018-03-10T05:07:46.505Z,4
2018-03-10T05:08:27.068Z,4
2018-03-10T05:09:07.645Z,0
2018-03-10T05:09:48.252Z,0
2018-03-10T05:10:28.809Z,0
2018-03-10T05:11:09.372Z,0
2018-03-10T05:11:49.932Z,4
2018-03-10T05:12:30.488Z,4
2018-03-10T05:13:11.038Z,4
2018-03-10T05:13:51.587Z,4
2018-03-10T05:14:32.138Z,0
2018-03-10T05:15:12.708Z,4
2018-03-10T05:15:53.241Z,4
2018-03-10T05:16:33.790Z,4
2018-03-10T05:17:14.340Z,4
2018-03-10T05:17:54.908Z,4
2018-03-10T05:18:35.480Z,4
2018-03-10T05:19:16.028Z,4
2018-03-10T05:19:56.619Z,8
2018-03-10T05:20:37.164Z,4
2018-03-10T05:21:17.718Z,4
2018-03-10T05:21:58.287Z,8
2018-03-10T05:22:38.846Z,4
2018-03-10T05:23:19.398Z,8
2018-03-10T05:23:59.943Z,8
2018-03-10T05:24:40.499Z,12
2018-03-10T05:25:21.052Z,12
2018-03-10T05:26:01.641Z,12
2018-03-10T05:26:42.198Z,16
2018-03-10T05:27:22.764Z,20
2018-03-10T05:28:03.317Z,20
2018-03-10T05:28:43.874Z,20
2018-03-10T05:29:24.435Z,20
2018-03-10T05:30:04.984Z,20
2018-03-10T05:30:45.566Z,24
2018-03-10T05:31:26.233Z,28
2018-03-10T05:32:07.042Z,32
2018-03-10T05:32:47.953Z,36
2018-03-10T05:33:28.691Z,36
2018-03-10T05:34:09.534Z,40
2018-03-10T05:34:50.493Z,40
2018-03-10T05:35:31.463Z,44
2018-03-10T05:36:12.246Z,48
2018-03-10T05:36:53.655Z,44
2018-03-10T05:37:34.576Z,48
2018-03-10T05:38:15.194Z,48
2018-03-10T05:38:55.924Z,48
2018-03-10T05:39:36.874Z,52
2018-03-10T05:40:17.756Z,52
2018-03-10T05:40:58.747Z,56
2018-03-10T05:41:39.562Z,56
2018-03-10T05:42:20.117Z,60
2018-03-10T05:43:00.859Z,64
2018-03-10T05:43:41.431Z,68
2018-03-10T05:44:21.998Z,68
2018-03-10T05:45:02.551Z,72
2018-03-10T05:45:43.144Z,76
2018-03-10T05:46:23.860Z,80
2018-03-10T05:47:04.577Z,80
2018-03-10T05:49:02.272Z,96
2018-03-10T05:49:42.824Z,104
2018-03-10T05:50:23.381Z,108
2018-03-10T05:51:03.933Z,116
2018-03-10T05:51:44.480Z,120
2018-03-10T05:52:25.080Z,132
2018-03-10T05:53:05.709Z,140
2018-03-10T05:53:46.250Z,148
2018-03-10T05:55:43.906Z,168
2018-03-10T05:56:24.775Z,180
2018-03-10T05:57:05.373Z,184
2018-03-10T05:57:45.934Z,192
2018-03-10T05:58:26.541Z,200
2018-03-10T05:59:07.188Z,204
2018-03-10T05:59:47.749Z,212
2018-03-10T06:00:28.346Z,216
2018-03-10T06:01:09.010Z,224
2018-03-10T06:01:49.573Z,228
2018-03-10T06:02:30.126Z,236
2018-03-10T06:03:10.673Z,236
2018-03-10T06:03:51.281Z,248
2018-03-10T06:04:31.832Z,248
2018-03-10T06:05:12.386Z,256
2018-03-10T06:05:53.032Z,264
2018-03-10T06:06:33.581Z,272
2018-03-10T06:07:14.458Z,276
2018-03-10T06:07:55.867Z,284
2018-03-10T06:08:36.688Z,288
2018-03-10T06:09:17.267Z,292
2018-03-10T06:09:57.839Z,300
2018-03-10T06:10:38.394Z,308
2018-03-10T06:11:18.970Z,316
2018-03-10T06:11:59.521Z,324
2018-03-10T06:12:40.071Z,328
2018-03-10T06:13:20.721Z,340
2018-03-10T06:14:01.295Z,348
2018-03-10T06:14:41.865Z,352
2018-03-10T06:15:22.414Z,364
2018-03-10T06:16:02.965Z,368
2018-03-10T06:16:43.550Z,376
2018-03-10T06:17:24.068Z,388
2018-03-10T06:18:04.618Z,392
2018-03-10T06:18:45.168Z,404
2018-03-10T06:19:25.721Z,412
2018-03-10T06:20:06.291Z,432
2018-03-10T06:20:46.845Z,448
2018-03-10T06:21:27.401Z,460
2018-03-10T06:22:07.945Z,476
2018-03-10T06:22:48.553Z,488
2018-03-10T06:23:29.112Z,504
2018-03-10T06:24:09.707Z,512
2018-03-10T06:24:50.222Z,532
2018-03-10T06:25:30.821Z,548
2018-03-10T06:26:11.386Z,564
2018-03-10T06:26:51.963Z,576
2018-03-10T06:27:32.530Z,588
2018-03-10T06:28:13.084Z,596
2018-03-10T06:28:53.642Z,608
2018-03-10T06:29:34.246Z,616
2018-03-10T06:30:14.790Z,628
2018-03-10T06:30:55.351Z,640
2018-03-10T06:31:35.952Z,648
2018-03-10T06:32:16.507Z,656
2018-03-10T06:32:57.064Z,656
2018-03-10T06:33:37.623Z,660
2018-03-10T06:34:18.216Z,660
2018-03-10T06:34:58.769Z,668
2018-03-10T06:35:39.339Z,680
2018-03-10T06:36:19.903Z,692
2018-03-10T06:37:00.467Z,696
2018-03-10T06:37:41.009Z,704
2018-03-10T06:38:21.594Z,716
2018-03-10T06:39:02.118Z,724
2018-03-10T06:39:42.660Z,736
2018-03-10T06:40:23.215Z,748
2018-03-10T06:41:03.767Z,756
2018-03-10T06:41:44.346Z,768
2018-03-10T06:42:24.898Z,784
2018-03-10T06:43:05.456Z,792
2018-03-10T06:43:46.090Z,804
2018-03-10T06:44:26.601Z,808
2018-03-10T06:45:07.145Z,812
2018-03-10T06:45:47.700Z,812
2018-03-10T06:46:28.262Z,812
2018-03-10T06:47:08.884Z,808
2018-03-10T06:47:49.440Z,804
2018-03-10T06:48:29.999Z,792
2018-03-10T06:49:10.568Z,788
2018-03-10T06:49:51.127Z,776
2018-03-10T06:50:31.679Z,772
2018-03-10T06:51:12.240Z,772
2018-03-10T06:51:52.835Z,772
2018-03-10T06:52:33.391Z,776
2018-03-10T06:53:13.974Z,780
2018-03-10T06:53:54.500Z,788
2018-03-10T06:54:35.054Z,804
2018-03-10T06:55:15.610Z,824
2018-03-10T06:55:56.182Z,844
2018-03-10T06:56:36.743Z,864
2018-03-10T06:57:17.317Z,876
2018-03-10T06:57:57.880Z,888
2018-03-10T06:58:38.469Z,896
2018-03-10T06:59:19.025Z,896
2018-03-10T06:59:59.576Z,884
2018-03-10T07:00:40.125Z,880
2018-03-10T07:01:20.677Z,876
2018-03-10T07:02:01.224Z,880
2018-03-10T07:02:41.981Z,880
2018-03-10T07:03:22.399Z,888
2018-03-10T07:04:02.966Z,912
2018-03-10T07:04:43.518Z,936
2018-03-10T07:05:24.096Z,968
2018-03-10T07:06:04.613Z,1004
2018-03-10T07:06:45.178Z,1040
2018-03-10T07:07:25.743Z,1080
2018-03-10T07:08:06.315Z,1116
2018-03-10T07:08:46.872Z,1148
2018-03-10T07:09:27.433Z,1172
2018-03-10T07:10:07.995Z,1204
2018-03-10T07:10:48.566Z,1244
2018-03-10T07:11:29.126Z,1284
2018-03-10T07:12:09.667Z,1316
2018-03-10T07:12:50.223Z,1348
2018-03-10T07:13:30.777Z,1380
2018-03-10T07:14:11.332Z,1404
2018-03-10T07:14:51.892Z,1420
2018-03-10T07:15:32.459Z,1432
2018-03-10T07:16:13.024Z,1436
2018-03-10T07:16:53.588Z,1432
2018-03-10T07:17:34.148Z,1440
2018-03-10T07:18:14.700Z,1444
2018-03-10T07:18:55.259Z,1460
2018-03-10T07:19:35.806Z,1472
2018-03-10T07:20:16.364Z,1488
2018-03-10T07:20:56.923Z,1500
2018-03-10T07:21:37.572Z,1528
2018-03-10T07:22:18.130Z,1560
2018-03-10T07:22:58.677Z,1600
2018-03-10T07:23:39.232Z,1636
2018-03-10T07:24:19.778Z,1672
2018-03-10T07:25:00.333Z,1696
2018-03-10T07:25:40.917Z,1724
2018-03-10T07:26:21.451Z,1760
2018-03-10T07:27:02.101Z,1800
2018-03-10T07:27:42.628Z,1856
2018-03-10T07:28:23.186Z,1924
2018-03-10T07:29:03.732Z,1980
2018-03-10T07:29:44.297Z,2032
2018-03-10T07:30:24.849Z,2088
2018-03-10T07:31:05.437Z,2140
2018-03-10T07:31:46.003Z,2168
2018-03-10T07:32:26.871Z,2164
2018-03-10T07:33:07.619Z,2156
2018-03-10T07:33:48.210Z,2156
2018-03-10T07:34:28.806Z,2164
2018-03-10T07:35:09.375Z,2164
2018-03-10T07:35:49.932Z,2152
2018-03-10T07:36:30.467Z,2136
2018-03-10T07:37:11.056Z,2128
2018-03-10T07:37:51.607Z,2112
2018-03-10T07:38:32.172Z,2076
2018-03-10T07:39:12.716Z,2024
2018-03-10T07:39:53.298Z,1996
2018-03-10T07:40:33.864Z,1924
2018-03-10T07:41:14.418Z,1884
2018-03-10T07:41:54.985Z,1848
2018-03-10T07:42:35.547Z,1824
2018-03-10T07:43:16.096Z,1812
2018-03-10T07:43:56.641Z,1832
2018-03-10T07:44:37.198Z,1876
2018-03-10T07:45:17.761Z,1992
2018-03-10T07:45:58.363Z,2140
2018-03-10T07:46:39.008Z,2300
2018-03-10T07:47:19.587Z,2464
2018-03-10T07:48:00.155Z,2604
2018-03-10T07:48:40.733Z,2696
2018-03-10T07:49:21.319Z,2752
2018-03-10T07:50:01.885Z,2784
2018-03-10T07:50:42.493Z,2820
2018-03-10T07:51:23.063Z,2900
2018-03-10T07:52:03.697Z,2984
2018-03-10T07:52:44.246Z,3076
2018-03-10T07:53:24.808Z,3192
2018-03-10T07:54:05.389Z,3264
2018-03-10T07:54:45.949Z,3292
2018-03-10T07:55:26.507Z,3252
2018-03-10T07:56:07.065Z,3168
2018-03-10T07:56:47.629Z,3068
2018-03-10T07:57:28.167Z,2992
2018-03-10T07:58:08.728Z,2936
2018-03-10T07:58:49.325Z,2896
2018-03-10T07:59:29.898Z,2844
2018-03-10T08:00:10.463Z,2792
2018-03-10T08:00:51.047Z,2708
2018-03-10T08:01:31.584Z,2608
2018-03-10T08:02:12.142Z,2500
2018-03-10T08:02:52.694Z,2372
2018-03-10T08:03:33.260Z,2248
2018-03-10T08:04:13.989Z,2124
2018-03-10T08:04:54.538Z,2004
2018-03-10T08:05:35.087Z,1888
2018-03-10T08:06:15.641Z,1764
2018-03-10T08:06:56.208Z,1644
2018-03-10T08:07:36.814Z,1548
2018-03-10T08:08:17.396Z,1448
2018-03-10T08:08:57.948Z,1368
2018-03-10T08:09:38.532Z,1324
2018-03-10T08:10:19.080Z,1292
2018-03-10T08:10:59.630Z,1280
2018-03-10T08:11:40.186Z,1264
2018-03-10T08:12:20.760Z,1232
2018-03-10T08:13:01.315Z,1176
2018-03-10T08:15:14.087Z,1136
2018-03-10T08:15:54.647Z,1152
2018-03-10T08:16:35.386Z,1168
2018-03-10T08:17:16.135Z,1180
2018-03-10T08:17:56.750Z,1196
2018-03-10T08:18:37.419Z,1228
2018-03-10T08:19:18.151Z,1264
2018-03-10T08:19:58.815Z,1320
2018-03-10T08:20:39.570Z,1368
2018-03-10T08:21:20.298Z,1380
2018-03-10T08:22:01.053Z,1396
2018-03-10T08:22:41.810Z,1408
2018-03-10T08:23:22.467Z,1436
2018-03-10T08:24:04.118Z,1416
2018-03-10T08:24:44.982Z,1408
2018-03-10T08:25:25.649Z,1404
2018-03-10T08:26:06.396Z,1452
2018-03-10T08:26:47.052Z,1480
2018-03-10T08:27:27.850Z,1504
2018-03-10T08:28:08.472Z,1508
2018-03-10T08:28:49.283Z,1472
2018-03-10T08:29:30.006Z,1524
2018-03-10T08:30:10.764Z,1532
2018-03-10T08:30:51.629Z,1496
2018-03-10T08:31:32.798Z,1472
2018-03-10T08:32:13.752Z,1476
2018-03-10T08:32:54.619Z,1492
2018-03-10T08:33:35.279Z,1484
2018-03-10T08:34:16.027Z,1536
2018-03-10T08:34:56.764Z,1568
2018-03-10T08:35:37.462Z,1572
2018-03-10T08:36:18.367Z,1592
2018-03-10T08:36:58.870Z,1596
2018-03-10T08:37:39.478Z,1584
2018-03-10T08:38:20.115Z,1544
2018-03-10T08:39:00.692Z,1448
2018-03-10T08:39:41.343Z,1356
2018-03-10T08:40:22.237Z,1332
2018-03-10T08:41:02.989Z,1372
2018-03-10T08:41:43.615Z,1460
2018-03-10T08:42:24.347Z,1512
2018-03-10T08:43:05.018Z,1488
2018-03-10T08:43:45.645Z,1536
2018-03-10T08:44:26.308Z,1624
2018-03-10T08:45:07.129Z,1596
2018-03-10T08:45:47.751Z,1488
2018-03-10T08:46:28.520Z,1428
2018-03-10T08:47:09.273Z,1444
2018-03-10T08:47:49.995Z,1516
2018-03-10T08:48:30.604Z,1632
2018-03-10T08:49:11.291Z,1676
2018-03-10T08:49:52.058Z,1784
2018-03-10T08:50:32.747Z,1964
2018-03-10T08:51:13.453Z,2116
2018-03-10T08:51:54.300Z,2200
2018-03-10T08:52:35.082Z,2160
2018-03-10T08:53:15.870Z,2164
2018-03-10T08:53:56.607Z,2180
2018-03-10T08:54:37.372Z,2108
2018-03-10T08:55:18.061Z,2104
2018-03-10T08:55:58.826Z,2200
2018-03-10T08:56:39.588Z,2240
2018-03-10T08:57:20.217Z,2276
2018-03-10T08:58:00.868Z,2320
2018-03-10T08:58:41.439Z,2476
2018-03-10T08:59:22.039Z,2748
2018-03-10T09:00:02.576Z,3104
2018-03-10T09:00:43.164Z,3316
2018-03-10T09:01:23.747Z,3456
2018-03-10T09:02:04.390Z,3320
2018-03-10T09:02:44.973Z,3196
2018-03-10T09:03:25.749Z,3244
2018-03-10T09:04:06.335Z,3192
2018-03-10T09:04:46.893Z,3292
2018-03-10T09:05:27.460Z,3368
2018-03-10T09:06:08.027Z,3392
2018-03-10T09:06:48.631Z,3444
2018-03-10T09:07:29.204Z,3360
2018-03-10T09:08:09.817Z,3160
2018-03-10T09:08:50.388Z,3168
2018-03-10T09:09:31.045Z,3252
2018-03-10T09:10:11.642Z,3364
2018-03-10T09:10:52.287Z,3232
2018-03-10T09:11:33.007Z,3316
2018-03-10T09:12:13.672Z,3168
2018-03-10T09:12:54.222Z,3048
2018-03-10T09:13:34.792Z,2964
2018-03-10T09:14:15.560Z,2812
2018-03-10T09:14:56.222Z,2820
2018-03-10T09:15:36.773Z,2764
2018-03-10T09:16:17.338Z,2872
2018-03-10T09:16:57.880Z,2872
2018-03-10T09:17:38.674Z,2856
2018-03-10T09:18:19.254Z,2928
2018-03-10T09:18:59.805Z,2868
2018-03-10T09:19:40.396Z,2844
2018-03-10T09:20:20.970Z,2964
2018-03-10T09:21:01.517Z,3264
2018-03-10T09:21:42.096Z,3576
2018-03-10T09:22:22.655Z,3704
2018-03-10T09:23:03.254Z,4292
2018-03-10T09:23:43.806Z,4144
2018-03-10T09:24:24.358Z,3696
2018-03-10T09:25:04.922Z,3808
2018-03-10T09:25:45.499Z,3948
2018-03-10T09:26:26.060Z,4356
2018-03-10T09:27:06.800Z,4284
2018-03-10T09:27:47.259Z,3812
2018-03-10T09:28:27.808Z,3860
2018-03-10T09:29:08.361Z,3768
2018-03-10T09:29:48.914Z,3904
2018-03-10T09:30:29.574Z,3920
2018-03-10T09:31:10.115Z,3976
2018-03-10T09:31:50.670Z,4004
2018-03-10T09:32:31.242Z,3860
2018-03-10T09:33:11.779Z,3952
2018-03-10T09:33:52.468Z,4300
2018-03-10T09:34:33.155Z,4684
2018-03-10T09:35:13.769Z,4692
2018-03-10T09:35:54.304Z,4996
2018-03-10T09:36:34.870Z,5132
2018-03-10T09:37:15.417Z,5532
2018-03-10T09:37:56.018Z,5736
2018-03-10T09:38:36.565Z,5644
2018-03-10T09:39:17.171Z,4592
2018-03-10T09:39:57.720Z,3856
2018-03-10T09:40:38.468Z,3540
2018-03-10T09:41:19.035Z,3776
2018-03-10T09:41:59.634Z,3996
2018-03-10T09:42:40.259Z,4168